Time;durP1;ratioP1;P1;durP2;ratioP2;P2;SDS_P1;SDS_P2;PMS_P1;PMS_P2;Temp;Humidity;BMP_temperature;BMP_pressure;BME280_temperature;BME280_humidity;BME280_pressure;Samples;Min_cycle;Max_cycle;Signal;HPM_P1;HPM_P2
2022/07/22 00:01:14;;;;;;;0.40;0.30;;;;;;;22.33;92.70;95355.41;5134743;27;20430;-60
2022/07/22 00:03:42;;;;;;;0.97;0.50;;;;;;;21.85;97.54;95355.47;5134823;27;20506;-60
2022/07/22 00:06:11;;;;;;;0.40;0.40;;;;;;;22.26;99.73;95403.81;5134737;27;20509;-60
2022/07/22 00:08:39;;;;;;;0.40;0.20;;;;;;;22.49;92.57;95399.47;5134711;27;20517;-61
2022/07/22 00:11:08;;;;;;;0.50;0.30;;;;;;;22.80;89.76;95398.81;5134610;27;20435;-60
2022/07/22 00:13:37;;;;;;;0.40;0.30;;;;;;;22.70;90.03;95375.78;5134887;27;20522;-60
2022/07/22 00:16:08;;;;;;;0.40;0.30;;;;;;;22.92;89.75;95403.41;5132994;27;20435;-60
2022/07/22 00:18:38;;;;;;;0.47;0.30;;;;;;;22.91;90.06;95404.53;5133874;27;20438;-60
2022/07/22 00:21:06;;;;;;;0.50;0.30;;;;;;;22.90;87.36;95403.72;5134370;27;20485;-60
2022/07/22 00:23:41;;;;;;;0.40;0.30;;;;;;;22.93;86.06;95413.06;5134356;27;20839;-61
2022/07/22 00:26:09;;;;;;;0.40;0.30;;;;;;;22.74;88.79;95398.28;5134315;27;20517;-60
2022/07/22 00:28:38;;;;;;;0.40;0.20;;;;;;;22.83;88.80;95422.47;5134356;27;20556;-60
2022/07/22 00:31:08;;;;;;;0.50;0.30;;;;;;;22.69;91.35;95419.38;5134426;27;20577;-61
2022/07/22 00:33:36;;;;;;;0.60;0.60;;;;;;;22.34;94.56;95391.31;5134554;27;20415;-61
2022/07/22 00:36:06;;;;;;;0.40;0.30;;;;;;;21.31;99.73;95325.25;5134165;27;20510;-61
2022/07/22 00:38:35;;;;;;;0.40;0.27;;;;;;;22.42;96.36;95414.66;5132063;27;20522;-61
2022/07/22 00:41:04;;;;;;;0.40;0.30;;;;;;;22.41;99.21;95418.53;5133575;27;21014;-61
2022/07/22 00:43:54;;;;;;;0.77;0.53;;;;;;;22.17;100.00;95421.25;5134124;27;20501;-61
2022/07/22 00:46:26;;;;;;;0.90;0.40;;;;;;;22.49;98.65;95420.31;5133823;27;20439;-61
2022/07/22 00:48:56;;;;;;;0.40;0.30;;;;;;;22.58;98.44;95419.03;5133908;27;20427;-61
2022/07/22 00:51:27;;;;;;;0.50;0.40;;;;;;;22.53;98.59;95421.19;5134035;27;20461;-61
2022/07/22 00:53:57;;;;;;;0.53;0.30;;;;;;;21.83;100.00;95342.31;5133326;27;20939;-61
2022/07/22 00:56:26;;;;;;;5.50;0.90;;;;;;;22.36;100.00;95416.84;5131689;27;20995;-61
2022/07/22 00:59:00;;;;;;;0.50;0.30;;;;;;;22.22;100.00;95419.09;5131661;27;20525;-61
2022/07/22 01:01:30;;;;;;;0.50;0.43;;;;;;;22.36;100.00;95416.84;5133087;27;20474;-61
2022/07/22 01:03:59;;;;;;;0.50;0.40;;;;;;;21.28;100.00;95318.63;5132484;27;20947;-61
2022/07/22 01:06:29;;;;;;;0.40;0.30;;;;;;;22.39;100.00;95421.53;5133164;27;20457;-61
2022/07/22 01:08:58;;;;;;;0.50;0.40;;;;;;;22.34;100.00;95423.72;5133856;27;20590;-61
2022/07/22 01:11:28;;;;;;;0.77;0.40;;;;;;;22.03;100.00;95371.13;5133358;27;21074;-61
2022/07/22 01:13:58;;;;;;;0.53;0.50;;;;;;;22.35;100.00;95419.88;5133711;27;20509;-61
2022/07/22 01:16:26;;;;;;;0.50;0.30;;;;;;;21.87;99.65;95353.25;5132966;27;20549;-61
2022/07/22 01:18:59;;;;;;;0.40;0.20;;;;;;;22.31;97.79;95427.88;5133265;27;21017;-61
2022/07/22 01:21:29;;;;;;;4.97;0.37;;;;;;;22.24;96.04;95435.75;5133324;27;20928;-61
2022/07/22 01:23:58;;;;;;;0.57;0.57;;;;;;;22.21;97.83;95430.25;5133183;27;20523;-60
2022/07/22 01:26:26;;;;;;;0.43;0.30;;;;;;;21.65;96.31;95353.69;5133280;27;20890;-61
2022/07/22 01:28:55;;;;;;;0.40;0.30;;;;;;;22.21;97.15;95430.25;5133154;27;20877;-61
2022/07/22 01:31:24;;;;;;;0.40;0.30;;;;;;;22.18;97.97;95433.63;5131852;27;20478;-61
2022/07/22 01:33:54;;;;;;;0.40;0.30;;;;;;;22.18;98.89;95437.13;5132780;27;20423;-61
2022/07/22 01:36:24;;;;;;;0.57;0.27;;;;;;;22.13;97.83;95434.66;5133373;27;20467;-61
2022/07/22 01:38:55;;;;;;;0.40;0.30;;;;;;;22.10;98.23;95436.13;5132582;27;20517;-58
2022/07/22 01:41:25;;;;;;;0.50;0.30;;;;;;;21.68;96.56;95425.88;5133016;27;20502;-59
2022/07/22 01:43:58;;;;;;;0.50;0.40;;;;;;;21.68;97.72;95432.03;5132850;27;20991;-59
2022/07/22 01:46:27;;;;;;;0.63;0.50;;;;;;;21.60;97.84;95424.84;5132977;27;20506;-59
2022/07/22 01:48:57;;;;;;;0.40;0.20;;;;;;;21.67;99.83;95433.16;5132953;27;20484;-59
2022/07/22 01:51:28;;;;;;;0.50;0.30;;;;;;;21.52;100.00;95394.16;5133081;27;20550;-59
2022/07/22 01:53:57;;;;;;;0.40;0.30;;;;;;;21.89;100.00;95423.84;5131785;27;20431;-60
2022/07/22 01:56:27;;;;;;;0.40;0.20;;;;;;;21.98;99.69;95425.34;5132628;27;20525;-60
2022/07/22 01:58:55;;;;;;;0.40;0.30;;;;;;;20.99;98.47;95299.94;5131768;27;20548;-60
2022/07/22 02:01:26;;;;;;;0.40;0.20;;;;;;;21.89;97.40;95424.66;5132361;27;20519;-60
2022/07/22 02:03:55;;;;;;;0.40;0.27;;;;;;;21.83;95.25;95420.56;5132420;27;21097;-60
2022/07/22 02:06:24;;;;;;;0.40;0.27;;;;;;;21.88;97.77;95428.47;5132372;27;20479;-60
2022/07/22 02:08:53;;;;;;;0.50;0.40;;;;;;;21.95;99.56;95430.63;5132395;28;20525;-60
2022/07/22 02:11:25;;;;;;;0.40;0.30;;;;;;;21.93;97.61;95428.25;5132433;28;20474;-60
2022/07/22 02:13:54;;;;;;;0.40;0.30;;;;;;;21.52;97.96;95366.41;5131390;28;20459;-60
2022/07/22 02:16:24;;;;;;;0.93;0.60;;;;;;;21.92;97.30;95428.59;5131813;28;20554;-60
2022/07/22 02:18:52;;;;;;;0.40;0.20;;;;;;;21.89;96.76;95421.16;5132567;28;20418;-60
2022/07/22 02:21:23;;;;;;;1.60;0.50;;;;;;;21.75;96.33;95431.47;5132713;28;20438;-60
2022/07/22 02:23:53;;;;;;;0.50;0.30;;;;;;;21.72;98.29;95429.44;5132590;28;20935;-60
2022/07/22 02:27:15;;;;;;;0.60;0.40;;;;;;;21.70;95.71;95437.09;5132222;28;20474;-60
2022/07/22 02:29:55;;;;;;;0.60;0.57;;;;;;;21.69;94.38;95435.50;5132816;28;20513;-60
2022/07/22 02:32:42;;;;;;;0.40;0.30;;;;;;;21.57;96.58;95436.31;5132397;28;20848;-60
2022/07/22 02:35:10;;;;;;;0.70;0.60;;;;;;;21.60;94.18;95442.94;5132348;28;20525;-60
2022/07/22 02:37:40;;;;;;;0.40;0.20;;;;;;;21.24;99.89;95446.34;5132448;28;20458;-60
2022/07/22 02:40:28;;;;;;;0.50;0.30;;;;;;;20.87;100.00;95458.88;5132221;28;20447;-60
2022/07/22 02:46:59;;;;;;;0.40;0.30;;;;;;;20.17;100.00;95467.75;5132280;28;20533;-60
2022/07/22 02:49:29;;;;;;;0.67;0.60;;;;;;;19.92;100.00;95415.66;5131926;28;20517;-60
2022/07/22 02:51:58;;;;;;;0.40;0.30;;;;;;;20.39;100.00;95462.09;5132035;28;20545;-60
2022/07/22 02:54:27;;;;;;;0.57;0.50;;;;;;;20.25;100.00;95456.97;5132824;28;20517;-60
2022/07/22 02:56:57;;;;;;;0.67;0.43;;;;;;;19.74;100.00;95410.69;5132216;28;20521;-60
2022/07/22 02:59:26;;;;;;;0.87;0.50;;;;;;;20.50;100.00;95457.13;5132216;28;20505;-60
2022/07/22 03:01:58;;;;;;;2.53;2.33;;;;;;;20.65;100.00;95454.63;5132212;28;20514;-60
2022/07/22 03:04:26;;;;;;;0.40;0.30;;;;;;;20.76;100.00;95457.72;5132174;28;20505;-60
2022/07/22 03:06:56;;;;;;;2.20;0.50;;;;;;;20.30;100.00;95375.22;5132402;28;20442;-60
2022/07/22 03:09:25;;;;;;;9.50;0.77;;;;;;;20.77;100.00;95465.44;5132371;28;20458;-60
2022/07/22 03:11:53;;;;;;;0.47;0.40;;;;;;;20.80;100.00;95467.47;5131988;28;21062;-60
2022/07/22 03:14:22;;;;;;;0.40;0.30;;;;;;;20.60;100.00;95467.50;5132222;28;20513;-60
2022/07/22 03:16:50;;;;;;;1.90;0.40;;;;;;;20.73;100.00;95471.81;5132467;27;20493;-60
2022/07/22 03:19:47;;;;;;;0.40;0.30;;;;;;;20.74;100.00;95460.75;5135567;27;20465;-60
2022/07/22 03:22:17;;;;;;;0.40;0.30;;;;;;;20.81;100.00;95476.38;5135917;27;20513;-60
2022/07/22 03:24:47;;;;;;;0.40;0.30;;;;;;;20.85;100.00;95475.38;5135437;27;20520;-60
2022/07/22 03:27:15;;;;;;;0.50;0.40;;;;;;;20.89;100.00;95465.53;5135660;27;21020;-57
2022/07/22 03:29:44;;;;;;;0.70;0.70;;;;;;;20.93;100.00;95462.94;5135704;27;20521;-56
2022/07/22 03:32:12;;;;;;;0.50;0.33;;;;;;;20.73;100.00;95469.13;5117602;27;20474;-56
2022/07/22 03:34:42;;;;;;;0.50;0.30;;;;;;;20.98;100.00;95467.31;5134336;27;20517;-56
2022/07/22 03:37:11;;;;;;;2.53;1.03;;;;;;;21.12;100.00;95471.38;5134617;27;20450;-56
2022/07/22 03:39:46;;;;;;;0.90;0.47;;;;;;;20.99;100.00;95434.69;5134616;27;20984;-56
2022/07/22 03:42:14;;;;;;;0.53;0.50;;;;;;;21.19;100.00;95476.22;5135155;27;20430;-56
2022/07/22 03:44:43;;;;;;;1.37;0.30;;;;;;;21.25;100.00;95462.19;5135272;27;20466;-56
2022/07/22 03:47:11;;;;;;;0.83;0.53;;;;;;;21.19;100.00;95447.34;5135093;27;20462;-56
2022/07/22 03:49:40;;;;;;;0.50;0.50;;;;;;;20.84;100.00;95465.72;5134442;27;20447;-56
2022/07/22 03:52:10;;;;;;;0.40;0.30;;;;;;;20.74;100.00;95465.34;5133591;27;20550;-56
2022/07/22 03:54:38;;;;;;;0.60;0.40;;;;;;;20.83;100.00;95433.72;5133905;27;20513;-56
2022/07/22 03:57:07;;;;;;;0.40;0.20;;;;;;;20.98;100.00;95441.19;5134552;27;20422;-57
2022/07/22 03:59:36;;;;;;;0.40;0.20;;;;;;;21.06;100.00;95426.88;5134936;27;20470;-56
2022/07/22 04:02:05;;;;;;;0.40;0.20;;;;;;;21.45;100.00;95469.41;5135121;27;20498;-56
2022/07/22 04:04:33;;;;;;;0.57;0.50;;;;;;;21.48;100.00;95474.16;5134382;27;20438;-56
2022/07/22 04:07:02;;;;;;;0.40;0.30;;;;;;;21.26;100.00;95442.19;5133545;27;20514;-56
2022/07/22 04:09:32;;;;;;;0.50;0.40;;;;;;;21.55;100.00;95456.63;5133550;27;20509;-55
2022/07/22 04:12:00;;;;;;;0.40;0.30;;;;;;;21.65;100.00;95467.78;5134433;27;21019;-57
2022/07/22 04:14:29;;;;;;;0.40;0.20;;;;;;;21.71;100.00;95468.34;5134728;27;20454;-61
2022/07/22 04:16:57;;;;;;;0.50;0.30;;;;;;;21.82;100.00;95464.09;5134476;27;20560;-58
2022/07/22 04:19:26;;;;;;;0.40;0.20;;;;;;;21.90;100.00;95452.44;5134001;27;20525;-57
2022/07/22 04:21:54;;;;;;;2.67;0.47;;;;;;;22.06;100.00;95459.50;5134366;27;20457;-58
2022/07/22 04:24:23;;;;;;;0.60;0.50;;;;;;;21.65;100.00;95402.25;5133534;27;20474;-58
2022/07/22 04:26:53;;;;;;;0.47;0.37;;;;;;;22.12;98.33;95468.16;5134514;27;20454;-58
2022/07/22 04:29:21;;;;;;;0.40;0.30;;;;;;;22.12;96.62;95463.56;5133697;27;20991;-59
2022/07/22 04:31:49;;;;;;;0.60;0.60;;;;;;;21.61;100.00;95471.47;5134063;27;21043;-59
2022/07/22 04:34:18;;;;;;;0.40;0.30;;;;;;;21.34;100.00;95462.91;5133850;27;20438;-59
2022/07/22 04:36:47;;;;;;;1.10;0.80;;;;;;;20.71;100.00;95474.06;5134352;27;20449;-59
2022/07/22 04:39:15;;;;;;;1.30;0.60;;;;;;;20.16;100.00;95468.88;5134154;27;20510;-59
2022/07/22 04:41:44;;;;;;;2.83;0.50;;;;;;;20.12;100.00;95474.13;5133962;27;20514;-60
2022/07/22 04:44:13;;;;;;;1.10;0.87;;;;;;;19.98;100.00;95476.25;5133763;27;20425;-60
2022/07/22 04:46:42;;;;;;;0.40;0.30;;;;;;;20.02;100.00;95471.00;5133777;27;20458;-60
2022/07/22 04:49:10;;;;;;;2.00;1.90;;;;;;;20.62;100.00;95478.72;5134056;27;20854;-60
2022/07/22 04:51:39;;;;;;;0.53;0.33;;;;;;;20.89;100.00;95475.50;5133633;27;20518;-60
2022/07/22 04:54:07;;;;;;;0.50;0.40;;;;;;;20.90;100.00;95477.06;5132825;27;20501;-60
2022/07/22 04:56:36;;;;;;;0.60;0.50;;;;;;;20.73;100.00;95475.31;5133517;27;20529;-60
2022/07/22 04:59:05;;;;;;;0.50;0.30;;;;;;;20.95;100.00;95476.88;5133871;27;20863;-60
2022/07/22 05:01:34;;;;;;;0.43;0.30;;;;;;;21.36;100.00;95468.72;5133521;27;20521;-60
2022/07/22 05:04:03;;;;;;;0.80;0.60;;;;;;;21.16;100.00;95434.53;5133470;27;20452;-59
2022/07/22 05:06:32;;;;;;;0.50;0.40;;;;;;;21.89;100.00;95461.63;5133282;27;20529;-59
2022/07/22 05:09:00;;;;;;;0.60;0.60;;;;;;;21.84;100.00;95465.31;5133360;27;20514;-60
2022/07/22 05:11:29;;;;;;;0.63;0.50;;;;;;;22.07;100.00;95461.09;5132882;27;20909;-60
2022/07/22 05:13:57;;;;;;;0.60;0.37;;;;;;;21.95;100.00;95463.00;5133254;27;20526;-60
2022/07/22 05:16:25;;;;;;;3.57;0.30;;;;;;;21.53;100.00;95411.09;5132903;27;20485;-60
2022/07/22 05:18:55;;;;;;;0.50;0.50;;;;;;;21.89;100.00;95451.63;5133369;27;20510;-61
2022/07/22 05:21:24;;;;;;;2.60;1.67;;;;;;;22.45;100.00;95452.59;5133354;27;20438;-61
2022/07/22 05:23:52;;;;;;;0.77;0.73;;;;;;;22.27;100.00;95445.88;5133131;27;20952;-61
2022/07/22 05:26:21;;;;;;;0.50;0.33;;;;;;;22.47;100.00;95446.84;5133009;27;20510;-61
2022/07/22 05:28:53;;;;;;;1.23;0.40;;;;;;;22.43;100.00;95443.25;5133060;27;20491;-60
2022/07/22 05:31:22;;;;;;;0.50;0.40;;;;;;;22.05;100.00;95446.34;5131599;27;20487;-60
2022/07/22 05:33:51;;;;;;;0.70;0.70;;;;;;;21.70;100.00;95451.38;5130333;27;20430;-60
2022/07/22 05:36:21;;;;;;;0.50;0.50;;;;;;;21.71;100.00;95461.03;5130680;27;20525;-60
2022/07/22 05:38:49;;;;;;;0.90;0.90;;;;;;;21.53;100.00;95456.97;5131833;27;20522;-60
2022/07/22 05:41:18;;;;;;;0.60;0.60;;;;;;;21.67;100.00;95413.50;5131230;27;20439;-60
2022/07/22 05:43:46;;;;;;;0.50;0.40;;;;;;;22.19;100.00;95454.88;5131734;27;20496;-60
2022/07/22 05:46:15;;;;;;;0.90;0.90;;;;;;;22.09;100.00;95458.03;5132275;27;20505;-59
2022/07/22 05:48:43;;;;;;;3.60;0.90;;;;;;;22.62;100.00;95465.88;5131443;27;20418;-59
2022/07/22 05:51:13;;;;;;;0.80;0.40;;;;;;;23.26;100.00;95454.13;5131848;27;20454;-59
2022/07/22 05:53:43;;;;;;;0.50;0.37;;;;;;;23.67;100.00;95453.72;5132403;27;20560;-59
2022/07/22 05:56:12;;;;;;;0.40;0.30;;;;;;;23.92;100.00;95465.94;5132575;27;20490;-59
2022/07/22 05:58:41;;;;;;;0.70;0.60;;;;;;;23.79;100.00;95460.94;5132162;27;20481;-58
2022/07/22 06:01:12;;;;;;;0.50;0.40;;;;;;;23.62;98.84;95458.59;5132652;27;20415;-58
2022/07/22 06:03:41;;;;;;;0.70;0.70;;;;;;;23.92;97.86;95463.22;5132183;27;20521;-58
2022/07/22 06:06:09;;;;;;;0.53;0.40;;;;;;;23.88;97.43;95456.16;5132646;27;20498;-58
2022/07/22 06:08:41;;;;;;;0.50;0.37;;;;;;;24.43;90.93;95463.28;5132418;27;20466;-58
2022/07/22 06:11:11;;;;;;;0.43;0.37;;;;;;;24.40;89.87;95463.97;5132881;28;20451;-58
2022/07/22 06:13:39;;;;;;;1.10;1.00;;;;;;;23.95;89.50;95449.00;5132477;28;20557;-58
2022/07/22 06:16:08;;;;;;;2.83;0.40;;;;;;;24.54;86.27;95459.66;5132432;28;20429;-58
2022/07/22 06:18:37;;;;;;;0.50;0.40;;;;;;;24.62;84.81;95457.88;5132436;28;20965;-58
2022/07/22 06:21:07;;;;;;;0.70;0.57;;;;;;;25.05;87.56;95456.84;5132680;28;20513;-58
2022/07/22 06:23:35;;;;;;;0.50;0.47;;;;;;;25.51;79.90;95446.91;5132824;28;20414;-59
2022/07/22 06:26:04;;;;;;;0.50;0.50;;;;;;;25.67;79.14;95444.88;5132512;28;20521;-59
2022/07/22 06:28:34;;;;;;;0.53;0.50;;;;;;;25.73;74.07;95446.13;5132487;28;20496;-59
2022/07/22 06:31:02;;;;;;;0.73;0.73;;;;;;;25.24;69.87;95443.28;5132231;28;20462;-59
2022/07/22 06:33:33;;;;;;;0.80;0.60;;;;;;;25.67;70.92;95445.66;5132251;28;20454;-58
2022/07/22 06:36:01;;;;;;;0.50;0.40;;;;;;;26.28;68.15;95437.34;5131854;28;20747;-59
2022/07/22 06:38:30;;;;;;;0.67;0.67;;;;;;;26.38;65.88;95393.25;5132336;28;20451;-59
2022/07/22 06:41:07;;;;;;;0.70;0.50;;;;;;;26.93;63.09;95435.16;5132384;28;20426;-59
2022/07/22 06:43:38;;;;;;;2.23;1.10;;;;;;;27.26;60.97;95434.34;5132566;28;20470;-60
2022/07/22 06:46:06;;;;;;;0.50;0.40;;;;;;;27.07;56.04;95440.75;5132099;28;20521;-59
2022/07/22 06:48:35;;;;;;;0.47;0.47;;;;;;;27.34;55.44;95424.31;5131919;28;20676;-59
2022/07/22 06:51:04;;;;;;;0.60;0.50;;;;;;;27.76;53.80;95422.03;5132269;27;20426;-59
2022/07/22 06:53:34;;;;;;;0.50;0.47;;;;;;;28.13;57.42;95424.72;5135271;27;20565;-59
2022/07/22 06:56:02;;;;;;;0.73;0.60;;;;;;;27.93;53.66;95372.34;5135926;27;20514;-59
2022/07/22 06:58:35;;;;;;;0.60;0.60;;;;;;;27.64;54.43;95297.84;5136014;27;20498;-59
2022/07/22 07:01:05;;;;;;;1.27;0.60;;;;;;;28.09;50.80;95421.94;5135846;27;20517;-59
2022/07/22 07:03:33;;;;;;;0.50;0.40;;;;;;;28.02;48.96;95421.91;5136065;27;20421;-59
2022/07/22 07:06:04;;;;;;;0.60;0.60;;;;;;;28.32;48.31;95419.78;5136212;27;20430;-59
2022/07/22 07:08:32;;;;;;;0.60;0.60;;;;;;;28.81;48.68;95405.66;5135722;27;20468;-60
2022/07/22 07:11:01;;;;;;;0.50;0.47;;;;;;;28.95;47.70;95413.88;5135664;27;20429;-59
2022/07/22 07:13:30;;;;;;;0.60;0.60;;;;;;;29.61;51.80;95402.75;5135446;27;20557;-60
2022/07/22 07:15:59;;;;;;;1.53;0.50;;;;;;;28.66;47.95;95375.97;5135817;27;20454;-60
2022/07/22 07:18:29;;;;;;;3.87;3.57;;;;;;;29.15;47.03;95416.28;5135113;27;20553;-59
2022/07/22 07:23:43;;;;;;;0.40;0.30;;;;;;;29.47;48.15;95344.22;5135310;27;20415;-60
2022/07/22 07:26:13;;;;;;;1.80;0.57;;;;;;;30.05;46.77;95414.13;5135285;27;20937;-60
2022/07/22 07:28:47;;;;;;;0.40;0.40;;;;;;;29.26;45.86;95419.88;5134999;27;20435;-60
2022/07/22 07:31:16;;;;;;;0.70;0.60;;;;;;;28.69;46.64;95299.59;5134929;27;20501;-60
2022/07/22 07:33:46;;;;;;;4.23;1.03;;;;;;;29.73;47.97;95403.16;5135066;27;20887;-60
2022/07/22 07:36:15;;;;;;;0.50;0.30;;;;;;;30.15;45.31;95405.16;5135096;27;20513;-61
2022/07/22 07:38:43;;;;;;;0.50;0.50;;;;;;;30.48;44.77;95398.47;5134945;27;20505;-63
2022/07/22 07:41:11;;;;;;;0.40;0.40;;;;;;;30.24;46.05;95391.84;5135451;27;20497;-63
2022/07/22 07:43:40;;;;;;;0.60;0.50;;;;;;;30.32;46.92;95396.13;5134934;27;20521;-62
2022/07/22 07:46:08;;;;;;;0.60;0.50;;;;;;;30.65;46.70;95397.66;5134821;27;20963;-64
2022/07/22 07:48:37;;;;;;;0.40;0.40;;;;;;;30.96;44.26;95394.06;5134995;27;20881;-60
2022/07/22 07:51:07;;;;;;;0.50;0.50;;;;;;;31.45;42.69;95393.00;5134524;27;20458;-62
2022/07/22 07:53:36;;;;;;;0.70;0.70;;;;;;;32.30;41.71;95398.66;5134874;27;20898;-60
2022/07/22 07:56:04;;;;;;;0.60;0.50;;;;;;;32.71;40.40;95389.63;5134851;27;20961;-61
2022/07/22 07:58:33;;;;;;;2.10;1.33;;;;;;;32.10;40.42;95389.44;5135073;27;20461;-60
2022/07/22 08:01:07;;;;;;;1.17;1.07;;;;;;;32.09;41.33;95393.34;5135030;27;20429;-62
2022/07/22 08:03:36;;;;;;;0.50;0.50;;;;;;;32.64;40.88;95385.75;5134258;27;20438;-60
2022/07/22 08:06:05;;;;;;;0.87;0.40;;;;;;;33.11;38.70;95386.81;5134519;27;20415;-60
2022/07/22 08:08:35;;;;;;;0.70;0.53;;;;;;;31.63;40.24;95343.56;5134777;27;20435;-60
2022/07/22 08:11:04;;;;;;;0.77;0.70;;;;;;;32.54;39.66;95383.91;5134533;27;20476;-60
2022/07/22 08:13:33;;;;;;;0.50;0.40;;;;;;;32.85;39.62;95387.50;5134513;27;20470;-60
2022/07/22 08:16:01;;;;;;;0.50;0.50;;;;;;;32.94;41.07;95370.53;5134334;27;20515;-60
2022/07/22 08:18:30;;;;;;;0.70;0.47;;;;;;;32.35;39.66;95384.50;5134057;27;20513;-60
2022/07/22 08:20:59;;;;;;;0.50;0.50;;;;;;;33.04;40.66;95380.63;5134201;27;20869;-59
2022/07/22 08:23:28;;;;;;;0.60;0.50;;;;;;;33.07;39.29;95379.78;5134039;27;20519;-60
2022/07/22 08:25:58;;;;;;;0.70;0.70;;;;;;;33.05;41.65;95374.72;5134239;27;20475;-60
2022/07/22 08:28:27;;;;;;;2.00;1.10;;;;;;;33.11;39.55;95372.28;5134043;27;20434;-59
2022/07/22 08:30:55;;;;;;;0.60;0.60;;;;;;;32.94;39.99;95373.28;5134169;27;20615;-59
2022/07/22 08:33:24;;;;;;;0.83;0.83;;;;;;;33.56;41.33;95368.13;5133692;27;20875;-58
2022/07/22 08:35:52;;;;;;;0.50;0.50;;;;;;;33.89;40.90;95363.69;5133937;27;20506;-59
2022/07/22 08:38:21;;;;;;;2.10;0.50;;;;;;;33.76;37.71;95370.97;5133988;27;20513;-58
2022/07/22 08:40:50;;;;;;;0.63;0.63;;;;;;;34.28;37.98;95357.53;5133805;27;20450;-58
2022/07/22 08:43:20;;;;;;;0.60;0.50;;;;;;;34.75;36.47;95344.47;5133659;27;20507;-58
2022/07/22 08:45:49;;;;;;;1.30;0.50;;;;;;;34.86;36.30;95343.06;5133841;27;20516;-58
2022/07/22 08:48:17;;;;;;;0.60;0.57;;;;;;;35.18;35.73;95344.38;5133566;27;20448;-58
2022/07/22 08:50:46;;;;;;;0.60;0.60;;;;;;;34.54;35.13;95351.13;5133655;27;20428;-58
2022/07/22 08:53:15;;;;;;;0.50;0.30;;;;;;;35.01;34.84;95344.31;5133314;27;20428;-58
2022/07/22 08:55:44;;;;;;;0.60;0.57;;;;;;;34.62;34.76;95349.06;5133446;27;20515;-58
2022/07/22 08:58:14;;;;;;;0.70;0.70;;;;;;;35.04;34.11;95345.47;5133863;27;20425;-57
2022/07/22 09:00:44;;;;;;;0.53;0.50;;;;;;;34.70;34.72;95340.25;5133292;27;20528;-58
2022/07/22 09:03:21;;;;;;;0.60;0.60;;;;;;;34.97;35.45;95343.59;5133248;27;20839;-57
2022/07/22 09:05:51;;;;;;;0.70;0.70;;;;;;;35.37;34.70;95341.56;5132900;27;20196;-57
2022/07/22 09:08:20;;;;;;;0.90;0.67;;;;;;;35.05;34.65;95344.25;5132877;27;20425;-57
2022/07/22 09:10:49;;;;;;;0.40;0.30;;;;;;;35.71;33.53;95338.44;5133133;27;20302;-58
2022/07/22 09:13:18;;;;;;;0.40;0.33;;;;;;;34.78;32.79;95341.66;5132890;27;20436;-58
2022/07/22 09:15:52;;;;;;;0.43;0.43;;;;;;;35.48;33.49;95336.59;5132089;27;20477;-57
2022/07/22 09:18:20;;;;;;;0.60;0.47;;;;;;;35.63;31.64;95334.31;5132793;27;20533;-57
2022/07/22 09:20:49;;;;;;;0.60;0.60;;;;;;;35.12;31.50;95332.31;5133169;27;20197;-57
2022/07/22 09:23:23;;;;;;;0.70;0.63;;;;;;;35.66;32.51;95331.47;5132867;27;20643;-57
2022/07/22 09:25:52;;;;;;;0.57;0.43;;;;;;;36.54;29.64;95330.44;5133234;27;20200;-57
2022/07/22 09:28:23;;;;;;;0.50;0.50;;;;;;;36.56;29.55;95322.50;5132893;27;20601;-57
2022/07/22 09:30:56;;;;;;;0.60;0.60;;;;;;;36.24;29.87;95315.81;5132589;27;20219;-57
2022/07/22 09:33:27;;;;;;;0.40;0.40;;;;;;;36.46;31.75;95316.00;5132842;27;20223;-57
2022/07/22 09:36:03;;;;;;;0.40;0.40;;;;;;;36.33;26.54;95304.91;5132643;27;20228;-57
2022/07/22 09:38:34;;;;;;;0.40;0.40;;;;;;;37.32;26.24;95307.63;5132667;27;20223;-57
2022/07/22 09:41:05;;;;;;;0.40;0.40;;;;;;;36.44;26.80;95307.41;5133002;27;20187;-57
2022/07/22 09:43:37;;;;;;;0.40;0.30;;;;;;;37.20;27.80;95302.88;5132562;27;20192;-57
2022/07/22 09:46:08;;;;;;;0.80;0.70;;;;;;;37.48;27.31;95285.41;5132376;27;20220;-57
2022/07/22 09:48:38;;;;;;;0.40;0.30;;;;;;;37.93;27.33;95300.97;5132721;27;20227;-57
2022/07/22 09:51:06;;;;;;;0.50;0.50;;;;;;;37.57;28.14;95292.28;5132869;27;20216;-57
2022/07/22 09:53:35;;;;;;;0.43;0.43;;;;;;;37.59;28.55;95292.59;5132549;27;20196;-57
2022/07/22 09:56:06;;;;;;;0.52;0.52;;;;;;;37.62;27.68;95292.50;5131974;27;20210;-57
2022/07/22 09:58:35;;;;;;;0.52;0.47;;;;;;;37.13;28.51;95285.72;5132114;27;20180;-58
2022/07/22 10:01:07;;;;;;;0.40;0.40;;;;;;;38.04;29.72;95282.78;5132536;27;20180;-57
2022/07/22 10:03:39;;;;;;;0.50;0.40;;;;;;;38.15;29.04;95274.13;5132381;27;20187;-57
2022/07/22 10:06:09;;;;;;;0.40;0.40;;;;;;;36.97;28.73;95275.53;5132461;27;20192;-57
2022/07/22 10:08:39;;;;;;;0.60;0.60;;;;;;;37.32;29.79;95277.19;5132755;27;20211;-57
2022/07/22 10:11:08;;;;;;;0.40;0.30;;;;;;;37.76;28.55;95274.63;5132672;28;20211;-57
2022/07/22 10:13:40;;;;;;;0.60;0.60;;;;;;;37.85;27.70;95263.69;5132625;28;20724;-58
2022/07/22 10:16:11;;;;;;;0.50;0.40;;;;;;;38.32;27.74;95267.19;5132130;28;20225;-58
2022/07/22 10:18:40;;;;;;;0.50;0.50;;;;;;;39.04;25.30;95264.13;5132318;28;20192;-59
2022/07/22 10:21:10;;;;;;;0.30;0.30;;;;;;;39.10;27.73;95258.75;5132378;28;20216;-58
2022/07/22 10:24:11;;;;;;;0.60;0.60;;;;;;;38.65;26.50;95248.19;5132455;28;20259;-59
2022/07/22 10:26:51;;;;;;;0.73;0.70;;;;;;;38.33;25.77;95252.13;5134038;27;20213;-59
2022/07/22 10:29:28;;;;;;;0.60;0.60;;;;;;;38.73;25.16;95238.41;5136452;27;20211;-59
2022/07/22 10:32:27;;;;;;;0.93;0.77;;;;;;;39.60;24.84;95241.69;5136321;27;20308;-59
2022/07/22 10:35:24;;;;;;;0.50;0.43;;;;;;;39.84;24.52;95239.94;5136202;27;20255;-59
2022/07/22 10:38:01;;;;;;;0.50;0.30;;;;;;;40.37;24.14;95242.44;5136280;27;20230;-59
2022/07/22 10:40:31;;;;;;;0.40;0.30;;;;;;;40.17;24.83;95237.34;5136538;27;20218;-59
2022/07/22 10:43:15;;;;;;;1.30;0.50;;;;;;;39.90;25.22;95231.75;5136107;27;20241;-59
2022/07/22 10:45:48;;;;;;;0.35;0.32;;;;;;;40.07;24.41;95232.25;5133674;27;20333;-59
2022/07/22 10:48:20;;;;;;;0.50;0.40;;;;;;;39.41;24.68;95225.47;5135079;27;20184;-59
2022/07/22 10:50:51;;;;;;;0.32;0.30;;;;;;;39.60;24.72;95229.81;5135996;27;20184;-59
2022/07/22 10:53:22;;;;;;;0.73;0.60;;;;;;;39.60;23.32;95225.03;5136249;27;20233;-59
2022/07/22 10:56:20;;;;;;;0.40;0.40;;;;;;;38.89;23.55;95224.31;5135736;27;20254;-59
2022/07/22 10:58:53;;;;;;;0.30;0.30;;;;;;;39.50;22.67;95220.72;5089173;27;20283;-59
2022/07/22 11:01:30;;;;;;;0.40;0.30;;;;;;;40.08;23.99;95222.69;5135999;27;20189;-59
2022/07/22 11:04:11;;;;;;;0.30;0.30;;;;;;;40.07;22.28;95223.91;5136167;27;20202;-59
2022/07/22 11:06:47;;;;;;;1.52;1.38;;;;;;;40.01;22.11;95220.19;5135555;27;20195;-59
2022/07/22 11:09:17;;;;;;;0.30;0.30;;;;;;;40.23;21.88;95213.25;5135172;27;20610;-59
2022/07/22 11:11:49;;;;;;;0.40;0.40;;;;;;;40.39;20.97;95151.06;5135913;27;20195;-59
2022/07/22 11:14:30;;;;;;;0.50;0.50;;;;;;;40.67;21.83;95219.25;5135513;27;20183;-59
2022/07/22 11:17:01;;;;;;;0.30;0.30;;;;;;;40.66;22.13;95214.16;5135165;27;20827;-59
2022/07/22 11:19:32;;;;;;;0.40;0.40;;;;;;;40.58;20.59;95216.50;5135460;27;20589;-59
2022/07/22 11:22:04;;;;;;;0.32;0.32;;;;;;;40.63;20.39;95203.97;5134920;27;20615;-59
2022/07/22 11:24:34;;;;;;;0.63;0.63;;;;;;;40.78;21.98;95213.19;5135397;27;20189;-59
2022/07/22 11:27:04;;;;;;;0.32;0.30;;;;;;;40.86;22.18;95206.81;5135372;27;20283;-59
2022/07/22 11:29:35;;;;;;;0.52;0.52;;;;;;;39.85;22.58;95210.91;5134372;27;20578;-59
2022/07/22 11:32:06;;;;;;;0.50;0.40;;;;;;;39.65;21.44;95205.03;5135049;27;20173;-59
2022/07/22 11:34:37;;;;;;;0.30;0.30;;;;;;;39.61;20.60;95207.22;5135108;27;20189;-59
2022/07/22 11:37:05;;;;;;;0.50;0.40;;;;;;;39.97;20.16;95215.56;5134930;27;20275;-59
2022/07/22 11:39:35;;;;;;;0.30;0.30;;;;;;;39.89;21.90;95205.22;5134258;27;20220;-59
2022/07/22 11:42:04;;;;;;;0.50;0.30;;;;;;;40.52;21.85;95199.69;5135030;27;20188;-59
2022/07/22 11:44:35;;;;;;;0.40;0.40;;;;;;;41.22;19.46;95203.16;5134788;27;20223;-59
2022/07/22 11:47:05;;;;;;;0.68;0.68;;;;;;;41.44;19.74;95197.34;5134566;27;20272;-59
2022/07/22 11:49:36;;;;;;;0.43;0.30;;;;;;;40.56;20.17;95203.06;5134431;27;20216;-59
2022/07/22 11:52:07;;;;;;;0.40;0.40;;;;;;;40.70;20.43;95198.84;5134781;27;20224;-59
2022/07/22 11:54:35;;;;;;;0.40;0.40;;;;;;;41.04;19.90;95192.88;5135114;27;20189;-53